Pottstown, PA

6:50 PM EDT on August 30, 2015 (GMT -0400)
Pottstown Limerick | | Change Station
CLOSE
Current Station
Airport
Location: Pottstown,
Elevation: 308 ft
Nearby Weather Stations

Elev 308 ft 40.24 °N, 75.55 °W | Updated 56 minutes ago

Mostly Cloudy
Mostly Cloudy
86 °F
Feels Like 89 °F
N
7
Wind Variable Wind from South

Today
High -- | Low -- °F
--% Chance of Precip.
Yesterday
High -- | Low -- °F
Precip. -- in
6:27 AM 7:37 PM
Full, 98% visible
Pressure 30.03 in
Visibility 10.0 miles
Clouds Mostly Cloudy 5000 ft
Mostly Cloudy 6000 ft
Heat Index 89 °F
Dew Point 67 °F
Humidity 53%
Rainfall 0.00 in
Snow Depth Not available.
UV 1 out of 12
Pollen 9.70 out of 12
Air Quality Not available.
Flu Activity Not available.
METAR KPTW 302154Z AUTO 19006KT 10SM BKN050 BKN060 30/19 A3005 RMK AO2 SLP169 T03000194
Pressure 30.03 in
Visibility 10.0 miles
Clouds Mostly Cloudy 5000 ft
Mostly Cloudy 6000 ft
Heat Index 89 °F
Dew Point 67 °F
Humidity 53%
Rainfall 0.00 in
Snow Depth Not available.
UV 1 out of 12
Pollen 9.70 out of 12
Air Quality Not available.
Flu Activity Not available.
METAR KPTW 302154Z AUTO 19006KT 10SM BKN050 BKN060 30/19 A3005 RMK AO2 SLP169 T03000194

10-Day Weather Forecast

×

Almanac

Astronomy

Aug. 30, 2015 Rise Set
Actual Time
Civil Twilight
Nautical Twilight
Astronomical Twilight
Moon
Length of Visible Light
Length of Day
Tomorrow will be .
, % of the Moon is Illuminated

Today's Extremes

State Highs State Lows

Community

WunderPhotos

Upload Photos

1,851,075 photos uploaded!

WunderBlogs® & News

Nearby

Air Quality

  Air Quality AQ Index Pollutant
Not available.

Snow Depth

Station Depth Elevation

Earthquake Activity

City Distance Mag. Time & Date
Minimum magnitude displayed is 2.5.

Coastal Water Temperatures

Place Temperature

Stations

Nearby Weather Stations

Station Location Temp. Windchill Dew Point Humidity Wind Precip. Elev Updated Type